Wednesday, September 17, 2014
23:44 UTC
  |  Log In   |  Register Free
Airport Search:

Faribault Municipal Airport
(KFBL)

Faribault Municipal Airport Diagram
No Airport Diagram Available

FAA data valid effective July 24, 2014 until September 18, 2014 (unless otherwise noted).

 
 
 
 
 
 
 
 
 
 
 
 
 
 

Current Aviation Weather for Faribault Municipal Airport (KFBL)

The most recent METAR observation for KFBL was updated at: 2312
METAR Summary (Translated METAR)
KFBL
172253Z AUTO 00000KT 10SM CLR 24/08 A2995 RMK AO2
KOWA
172255Z AUTO 03003KT 10SM CLR 22/11 A2995 RMK AO2
(12.5 nm SE from KFBL)
KSYN
172251Z AUTO 00000KT 10SM SCT060 SCT070 23/11 A2993 RMK AO2 T02300112
(15.5 nm NE from KFBL)
TAF
No TAF information found within 50 nm of KFBL
  Airport Weather Conditions for KFBL

 Current Weather at FBL
75° F
Fair
North winds at 0.0 mph
FBL NOAA Radar

Pressure: 29.95 in
Humidity: 36%
Wind: Calm
Dew Point: 46.4°F
Visibility: 10.00 mi


Airport Weather Forecast for KFBL

Translated METAR and TAF for KFBL
Translated METAR for KFBL (2338 UTC 17 September 2014)
found at http://aviationweather.gov/adds/metars/
 
METAR text: KFBL 172334Z AUTO 00000KT 10SM CLR 23/10 A2996 RMK AO2
Conditions at: KFBL (FARIBAULT MUNI , MN, US) observed 2334 UTC 17 September 2014
Temperature: 23.0°C (73°F)
Dewpoint: 10.0°C (50°F) [RH = 44%]
Pressure (altimeter): 29.96 inches Hg (1014.6 mb)
Winds: calm
Visibility: 10 or more miles (16+ km)
Ceiling: at least 12,000 feet AGL
Clouds: sky clear below 12,000 feet AGL
Weather: automated observation with no human augmentation;
there may or may not be significant weather present at this time
Translated TAF for KFBL

There is no translated TAF available for this airport

Find All Airport Services Find A Hotel Find A Rental Car Find A Golf Course Find A Restaurant $100 Hamburger



FBO's on the Field
FBO Company Facility Photos Services Transportation Aviation Fuel Prices: Prices include tax
Catering Weather Repair Courtesy Rental Type 100LL JetA JetA+ MOGAS 8087
 
Quality Aviation

This FBO has not yet been rated
FS:Independent
Last Updated: Aug-25
Login to update fuel prices
SS:
Contact Quality AviationMore FBO Information
 
Add another FBO Facility Photos Catering Weather Repair Courtesy Rental Type 100LL JetA JetA+ MOGAS 8087
Services Transportation Aviation Fuel Prices: Prices include tax


model-print
model-print
model-print
model-print